sensor_id;sensor_type;location;lat;lon;timestamp;P1;durP1;ratioP1;P2;durP2;ratioP2
21943;SDS011;11136;48.778;9.126;2023-08-20T00:00:10;9.65;;;6.15;;
21943;SDS011;11136;48.778;9.126;2023-08-20T00:02:36;9.68;;;6.18;;
21943;SDS011;11136;48.778;9.126;2023-08-20T00:05:04;9.30;;;6.43;;
21943;SDS011;11136;48.778;9.126;2023-08-20T00:07:33;9.98;;;5.88;;
21943;SDS011;11136;48.778;9.126;2023-08-20T00:09:59;11.02;;;6.57;;
21943;SDS011;11136;48.778;9.126;2023-08-20T00:12:24;8.85;;;5.68;;
21943;SDS011;11136;48.778;9.126;2023-08-20T00:15:00;9.30;;;6.00;;
21943;SDS011;11136;48.778;9.126;2023-08-20T00:17:33;9.27;;;5.63;;
21943;SDS011;11136;48.778;9.126;2023-08-20T00:20:00;9.85;;;6.15;;
21943;SDS011;11136;48.778;9.126;2023-08-20T00:22:26;11.82;;;6.20;;
21943;SDS011;11136;48.778;9.126;2023-08-20T00:24:52;7.68;;;5.50;;
21943;SDS011;11136;48.778;9.126;2023-08-20T00:27:19;9.02;;;5.65;;
21943;SDS011;11136;48.778;9.126;2023-08-20T00:29:45;9.27;;;6.10;;
21943;SDS011;11136;48.778;9.126;2023-08-20T00:32:11;10.02;;;6.25;;
21943;SDS011;11136;48.778;9.126;2023-08-20T00:34:36;10.90;;;5.68;;
21943;SDS011;11136;48.778;9.126;2023-08-20T00:37:02;11.10;;;6.70;;
21943;SDS011;11136;48.778;9.126;2023-08-20T00:39:28;9.13;;;6.40;;
21943;SDS011;11136;48.778;9.126;2023-08-20T00:41:54;8.52;;;6.18;;
21943;SDS011;11136;48.778;9.126;2023-08-20T00:44:20;11.00;;;5.70;;
21943;SDS011;11136;48.778;9.126;2023-08-20T00:46:46;12.15;;;6.20;;
21943;SDS011;11136;48.778;9.126;2023-08-20T00:49:12;9.23;;;6.05;;
21943;SDS011;11136;48.778;9.126;2023-08-20T00:51:37;12.43;;;6.60;;
21943;SDS011;11136;48.778;9.126;2023-08-20T00:54:03;8.02;;;5.75;;
21943;SDS011;11136;48.778;9.126;2023-08-20T00:56:30;13.95;;;5.70;;
21943;SDS011;11136;48.778;9.126;2023-08-20T00:58:55;11.90;;;6.30;;
21943;SDS011;11136;48.778;9.126;2023-08-20T01:01:22;7.35;;;5.85;;
21943;SDS011;11136;48.778;9.126;2023-08-20T01:03:48;9.90;;;6.53;;
21943;SDS011;11136;48.778;9.126;2023-08-20T01:08:50;7.82;;;6.05;;
21943;SDS011;11136;48.778;9.126;2023-08-20T01:11:41;12.88;;;5.78;;
21943;SDS011;11136;48.778;9.126;2023-08-20T01:14:16;13.77;;;6.40;;
21943;SDS011;11136;48.778;9.126;2023-08-20T01:16:42;8.85;;;6.40;;
21943;SDS011;11136;48.778;9.126;2023-08-20T01:19:10;8.65;;;6.18;;
21943;SDS011;11136;48.778;9.126;2023-08-20T01:21:54;10.20;;;6.28;;
21943;SDS011;11136;48.778;9.126;2023-08-20T01:30:08;11.10;;;5.82;;
21943;SDS011;11136;48.778;9.126;2023-08-20T01:32:34;10.75;;;6.65;;
21943;SDS011;11136;48.778;9.126;2023-08-20T01:35:01;9.18;;;6.07;;
21943;SDS011;11136;48.778;9.126;2023-08-20T01:37:28;8.95;;;5.93;;
21943;SDS011;11136;48.778;9.126;2023-08-20T01:39:54;11.90;;;6.55;;
21943;SDS011;11136;48.778;9.126;2023-08-20T01:42:19;10.07;;;6.43;;
21943;SDS011;11136;48.778;9.126;2023-08-20T01:44:45;7.47;;;5.90;;
21943;SDS011;11136;48.778;9.126;2023-08-20T01:47:10;10.02;;;6.22;;
21943;SDS011;11136;48.778;9.126;2023-08-20T01:49:36;8.93;;;6.57;;
21943;SDS011;11136;48.778;9.126;2023-08-20T01:52:01;10.38;;;5.63;;
21943;SDS011;11136;48.778;9.126;2023-08-20T01:54:27;8.75;;;6.22;;
21943;SDS011;11136;48.778;9.126;2023-08-20T01:56:53;8.23;;;6.07;;
21943;SDS011;11136;48.778;9.126;2023-08-20T01:59:21;9.57;;;6.13;;
21943;SDS011;11136;48.778;9.126;2023-08-20T02:01:48;10.38;;;6.47;;
21943;SDS011;11136;48.778;9.126;2023-08-20T02:04:13;9.00;;;5.90;;
21943;SDS011;11136;48.778;9.126;2023-08-20T02:06:39;9.15;;;6.05;;
21943;SDS011;11136;48.778;9.126;2023-08-20T02:09:04;10.57;;;6.05;;
21943;SDS011;11136;48.778;9.126;2023-08-20T02:11:30;11.88;;;6.30;;
21943;SDS011;11136;48.778;9.126;2023-08-20T02:13:58;8.18;;;6.05;;
21943;SDS011;11136;48.778;9.126;2023-08-20T02:16:23;12.85;;;7.65;;
21943;SDS011;11136;48.778;9.126;2023-08-20T02:18:49;7.85;;;6.05;;
21943;SDS011;11136;48.778;9.126;2023-08-20T02:21:14;10.95;;;7.20;;
21943;SDS011;11136;48.778;9.126;2023-08-20T02:23:40;15.02;;;7.97;;
21943;SDS011;11136;48.778;9.126;2023-08-20T02:26:05;16.50;;;8.68;;
21943;SDS011;11136;48.778;9.126;2023-08-20T02:28:31;19.75;;;9.88;;
21943;SDS011;11136;48.778;9.126;2023-08-20T02:30:56;13.60;;;7.57;;
21943;SDS011;11136;48.778;9.126;2023-08-20T02:33:22;14.50;;;8.40;;
21943;SDS011;11136;48.778;9.126;2023-08-20T02:35:48;10.05;;;6.55;;
21943;SDS011;11136;48.778;9.126;2023-08-20T02:38:13;14.07;;;7.45;;
21943;SDS011;11136;48.778;9.126;2023-08-20T02:40:42;10.77;;;7.65;;
21943;SDS011;11136;48.778;9.126;2023-08-20T02:43:08;12.43;;;7.75;;
21943;SDS011;11136;48.778;9.126;2023-08-20T02:45:39;10.00;;;7.32;;
21943;SDS011;11136;48.778;9.126;2023-08-20T02:48:08;17.85;;;7.65;;
21943;SDS011;11136;48.778;9.126;2023-08-20T02:50:34;14.25;;;7.32;;
21943;SDS011;11136;48.778;9.126;2023-08-20T02:52:59;10.88;;;8.00;;
21943;SDS011;11136;48.778;9.126;2023-08-20T02:55:25;16.38;;;8.57;;
21943;SDS011;11136;48.778;9.126;2023-08-20T02:57:51;17.40;;;10.27;;
21943;SDS011;11136;48.778;9.126;2023-08-20T03:00:16;15.52;;;10.65;;
21943;SDS011;11136;48.778;9.126;2023-08-20T03:02:42;20.38;;;13.13;;
21943;SDS011;11136;48.778;9.126;2023-08-20T03:05:08;16.52;;;10.85;;
21943;SDS011;11136;48.778;9.126;2023-08-20T03:07:34;17.58;;;10.95;;
21943;SDS011;11136;48.778;9.126;2023-08-20T03:10:00;17.05;;;10.85;;
21943;SDS011;11136;48.778;9.126;2023-08-20T03:12:26;14.23;;;9.43;;
21943;SDS011;11136;48.778;9.126;2023-08-20T03:14:51;15.48;;;10.43;;
21943;SDS011;11136;48.778;9.126;2023-08-20T03:17:17;14.45;;;9.55;;
21943;SDS011;11136;48.778;9.126;2023-08-20T03:19:55;16.25;;;10.48;;
21943;SDS011;11136;48.778;9.126;2023-08-20T03:22:22;15.02;;;8.50;;
21943;SDS011;11136;48.778;9.126;2023-08-20T03:24:49;12.50;;;8.65;;
21943;SDS011;11136;48.778;9.126;2023-08-20T03:27:15;9.82;;;8.23;;
21943;SDS011;11136;48.778;9.126;2023-08-20T03:29:41;15.57;;;8.73;;
21943;SDS011;11136;48.778;9.126;2023-08-20T03:32:07;10.30;;;7.47;;
21943;SDS011;11136;48.778;9.126;2023-08-20T03:34:33;12.05;;;6.80;;
21943;SDS011;11136;48.778;9.126;2023-08-20T03:36:58;11.27;;;7.22;;
21943;SDS011;11136;48.778;9.126;2023-08-20T03:39:24;10.77;;;6.47;;
21943;SDS011;11136;48.778;9.126;2023-08-20T03:41:50;13.35;;;6.85;;
21943;SDS011;11136;48.778;9.126;2023-08-20T03:44:16;9.70;;;6.53;;
21943;SDS011;11136;48.778;9.126;2023-08-20T03:46:42;11.77;;;7.22;;
21943;SDS011;11136;48.778;9.126;2023-08-20T03:49:08;8.90;;;6.63;;
21943;SDS011;11136;48.778;9.126;2023-08-20T03:51:33;11.43;;;6.35;;
21943;SDS011;11136;48.778;9.126;2023-08-20T03:53:59;9.75;;;6.18;;
21943;SDS011;11136;48.778;9.126;2023-08-20T03:56:24;10.15;;;6.30;;
21943;SDS011;11136;48.778;9.126;2023-08-20T03:58:50;7.50;;;6.20;;
21943;SDS011;11136;48.778;9.126;2023-08-20T04:01:17;9.55;;;6.10;;
21943;SDS011;11136;48.778;9.126;2023-08-20T04:03:45;8.50;;;6.30;;
21943;SDS011;11136;48.778;9.126;2023-08-20T04:06:11;8.15;;;6.18;;
21943;SDS011;11136;48.778;9.126;2023-08-20T04:08:36;9.23;;;6.70;;
21943;SDS011;11136;48.778;9.126;2023-08-20T04:11:02;8.63;;;6.22;;
21943;SDS011;11136;48.778;9.126;2023-08-20T04:13:28;12.05;;;6.72;;
21943;SDS011;11136;48.778;9.126;2023-08-20T04:15:55;11.20;;;6.63;;
21943;SDS011;11136;48.778;9.126;2023-08-20T04:18:20;9.95;;;6.60;;
21943;SDS011;11136;48.778;9.126;2023-08-20T04:20:52;9.60;;;5.97;;
21943;SDS011;11136;48.778;9.126;2023-08-20T04:23:19;12.48;;;6.40;;
21943;SDS011;11136;48.778;9.126;2023-08-20T04:25:45;11.20;;;6.25;;
21943;SDS011;11136;48.778;9.126;2023-08-20T04:28:11;11.13;;;6.63;;
21943;SDS011;11136;48.778;9.126;2023-08-20T04:30:37;6.95;;;5.93;;
21943;SDS011;11136;48.778;9.126;2023-08-20T04:33:03;13.38;;;6.65;;
21943;SDS011;11136;48.778;9.126;2023-08-20T04:35:29;8.73;;;6.55;;
21943;SDS011;11136;48.778;9.126;2023-08-20T04:37:55;10.52;;;6.65;;
21943;SDS011;11136;48.778;9.126;2023-08-20T04:40:21;8.93;;;6.55;;
21943;SDS011;11136;48.778;9.126;2023-08-20T04:42:46;10.05;;;6.50;;
21943;SDS011;11136;48.778;9.126;2023-08-20T04:45:12;11.27;;;6.68;;
21943;SDS011;11136;48.778;9.126;2023-08-20T04:47:38;10.13;;;6.30;;
21943;SDS011;11136;48.778;9.126;2023-08-20T04:50:04;9.68;;;6.95;;
21943;SDS011;11136;48.778;9.126;2023-08-20T04:52:33;8.57;;;6.32;;
21943;SDS011;11136;48.778;9.126;2023-08-20T04:54:59;10.18;;;7.03;;
21943;SDS011;11136;48.778;9.126;2023-08-20T04:57:25;14.45;;;6.72;;
21943;SDS011;11136;48.778;9.126;2023-08-20T04:59:51;10.10;;;6.20;;
21943;SDS011;11136;48.778;9.126;2023-08-20T05:02:16;10.93;;;6.20;;
21943;SDS011;11136;48.778;9.126;2023-08-20T05:04:42;10.77;;;6.55;;
21943;SDS011;11136;48.778;9.126;2023-08-20T05:07:07;8.20;;;7.18;;
21943;SDS011;11136;48.778;9.126;2023-08-20T05:09:34;11.05;;;6.43;;
21943;SDS011;11136;48.778;9.126;2023-08-20T05:11:59;10.20;;;6.97;;
21943;SDS011;11136;48.778;9.126;2023-08-20T05:14:25;10.52;;;6.22;;
21943;SDS011;11136;48.778;9.126;2023-08-20T05:16:50;9.63;;;6.97;;
21943;SDS011;11136;48.778;9.126;2023-08-20T05:19:16;7.65;;;6.38;;
21943;SDS011;11136;48.778;9.126;2023-08-20T05:21:42;9.50;;;6.38;;
21943;SDS011;11136;48.778;9.126;2023-08-20T05:24:07;8.98;;;7.13;;
21943;SDS011;11136;48.778;9.126;2023-08-20T05:26:34;7.95;;;6.93;;
21943;SDS011;11136;48.778;9.126;2023-08-20T05:28:59;11.07;;;7.03;;
21943;SDS011;11136;48.778;9.126;2023-08-20T05:31:25;10.48;;;6.88;;
21943;SDS011;11136;48.778;9.126;2023-08-20T05:33:51;10.80;;;7.20;;
21943;SDS011;11136;48.778;9.126;2023-08-20T05:36:17;9.82;;;7.07;;
21943;SDS011;11136;48.778;9.126;2023-08-20T05:38:42;12.95;;;7.40;;
21943;SDS011;11136;48.778;9.126;2023-08-20T05:41:08;10.50;;;6.90;;
21943;SDS011;11136;48.778;9.126;2023-08-20T05:43:34;11.25;;;7.75;;
21943;SDS011;11136;48.778;9.126;2023-08-20T05:46:01;9.40;;;7.90;;
21943;SDS011;11136;48.778;9.126;2023-08-20T05:48:28;10.63;;;7.72;;
21943;SDS011;11136;48.778;9.126;2023-08-20T05:50:55;10.88;;;7.45;;
21943;SDS011;11136;48.778;9.126;2023-08-20T05:53:24;9.50;;;6.90;;
21943;SDS011;11136;48.778;9.126;2023-08-20T05:55:49;12.75;;;6.90;;
21943;SDS011;11136;48.778;9.126;2023-08-20T05:58:15;11.73;;;7.47;;
21943;SDS011;11136;48.778;9.126;2023-08-20T06:00:41;9.27;;;6.97;;
21943;SDS011;11136;48.778;9.126;2023-08-20T06:03:06;12.10;;;7.90;;
21943;SDS011;11136;48.778;9.126;2023-08-20T06:05:33;11.85;;;7.43;;
21943;SDS011;11136;48.778;9.126;2023-08-20T06:07:59;9.98;;;6.90;;
21943;SDS011;11136;48.778;9.126;2023-08-20T06:10:25;9.98;;;8.18;;
21943;SDS011;11136;48.778;9.126;2023-08-20T06:12:51;14.07;;;8.00;;
21943;SDS011;11136;48.778;9.126;2023-08-20T06:15:17;10.15;;;7.68;;
21943;SDS011;11136;48.778;9.126;2023-08-20T06:17:43;13.73;;;7.95;;
21943;SDS011;11136;48.778;9.126;2023-08-20T06:20:08;12.55;;;7.97;;
21943;SDS011;11136;48.778;9.126;2023-08-20T06:22:36;11.95;;;8.13;;
21943;SDS011;11136;48.778;9.126;2023-08-20T06:25:05;14.38;;;7.65;;
21943;SDS011;11136;48.778;9.126;2023-08-20T06:27:31;9.20;;;7.80;;
21943;SDS011;11136;48.778;9.126;2023-08-20T06:29:57;10.93;;;8.07;;
21943;SDS011;11136;48.778;9.126;2023-08-20T06:32:26;12.90;;;7.75;;
21943;SDS011;11136;48.778;9.126;2023-08-20T06:34:51;10.02;;;7.78;;
21943;SDS011;11136;48.778;9.126;2023-08-20T06:37:17;11.93;;;8.27;;
21943;SDS011;11136;48.778;9.126;2023-08-20T06:39:42;12.38;;;7.82;;
21943;SDS011;11136;48.778;9.126;2023-08-20T06:42:08;16.33;;;8.32;;
21943;SDS011;11136;48.778;9.126;2023-08-20T06:44:34;11.52;;;7.40;;
21943;SDS011;11136;48.778;9.126;2023-08-20T06:47:00;11.70;;;7.85;;
21943;SDS011;11136;48.778;9.126;2023-08-20T06:49:26;12.50;;;7.10;;
21943;SDS011;11136;48.778;9.126;2023-08-20T06:51:52;9.40;;;7.53;;
21943;SDS011;11136;48.778;9.126;2023-08-20T06:54:17;12.13;;;7.95;;
21943;SDS011;11136;48.778;9.126;2023-08-20T06:56:43;10.88;;;7.38;;
21943;SDS011;11136;48.778;9.126;2023-08-20T06:59:09;14.20;;;7.47;;
21943;SDS011;11136;48.778;9.126;2023-08-20T07:01:35;11.13;;;7.95;;
21943;SDS011;11136;48.778;9.126;2023-08-20T07:04:01;11.27;;;7.90;;
21943;SDS011;11136;48.778;9.126;2023-08-20T07:06:27;9.02;;;7.90;;
21943;SDS011;11136;48.778;9.126;2023-08-20T07:08:53;12.48;;;7.00;;
21943;SDS011;11136;48.778;9.126;2023-08-20T07:11:18;10.18;;;7.55;;
21943;SDS011;11136;48.778;9.126;2023-08-20T07:13:44;9.90;;;6.88;;
21943;SDS011;11136;48.778;9.126;2023-08-20T07:16:09;8.95;;;6.93;;
21943;SDS011;11136;48.778;9.126;2023-08-20T07:18:35;11.70;;;7.85;;
21943;SDS011;11136;48.778;9.126;2023-08-20T07:21:01;8.85;;;7.07;;
21943;SDS011;11136;48.778;9.126;2023-08-20T07:23:27;17.42;;;7.72;;
21943;SDS011;11136;48.778;9.126;2023-08-20T07:26:03;15.20;;;7.40;;
21943;SDS011;11136;48.778;9.126;2023-08-20T07:28:30;9.45;;;7.15;;
21943;SDS011;11136;48.778;9.126;2023-08-20T07:31:14;10.02;;;7.55;;
21943;SDS011;11136;48.778;9.126;2023-08-20T07:33:39;10.15;;;7.43;;
21943;SDS011;11136;48.778;9.126;2023-08-20T07:36:05;11.63;;;7.60;;
21943;SDS011;11136;48.778;9.126;2023-08-20T07:38:30;13.38;;;8.32;;
21943;SDS011;11136;48.778;9.126;2023-08-20T07:40:56;10.70;;;6.78;;
21943;SDS011;11136;48.778;9.126;2023-08-20T07:43:22;16.25;;;6.95;;
21943;SDS011;11136;48.778;9.126;2023-08-20T07:45:48;11.52;;;7.03;;
21943;SDS011;11136;48.778;9.126;2023-08-20T07:48:14;8.75;;;7.00;;
21943;SDS011;11136;48.778;9.126;2023-08-20T07:50:40;8.63;;;6.88;;
21943;SDS011;11136;48.778;9.126;2023-08-20T07:53:05;9.25;;;7.40;;
21943;SDS011;11136;48.778;9.126;2023-08-20T07:55:31;10.27;;;7.43;;
21943;SDS011;11136;48.778;9.126;2023-08-20T07:57:57;11.75;;;7.93;;
21943;SDS011;11136;48.778;9.126;2023-08-20T08:00:23;11.43;;;7.80;;
21943;SDS011;11136;48.778;9.126;2023-08-20T08:02:48;12.98;;;7.57;;
21943;SDS011;11136;48.778;9.126;2023-08-20T08:05:14;14.18;;;8.18;;
21943;SDS011;11136;48.778;9.126;2023-08-20T08:07:40;9.50;;;6.85;;
21943;SDS011;11136;48.778;9.126;2023-08-20T08:10:05;15.75;;;7.05;;
21943;SDS011;11136;48.778;9.126;2023-08-20T08:12:31;13.50;;;8.00;;
21943;SDS011;11136;48.778;9.126;2023-08-20T08:14:57;17.55;;;9.02;;
21943;SDS011;11136;48.778;9.126;2023-08-20T08:17:23;14.80;;;7.65;;
21943;SDS011;11136;48.778;9.126;2023-08-20T08:19:49;11.85;;;8.43;;
21943;SDS011;11136;48.778;9.126;2023-08-20T08:22:15;25.67;;;8.13;;
21943;SDS011;11136;48.778;9.126;2023-08-20T08:24:40;11.65;;;7.82;;
21943;SDS011;11136;48.778;9.126;2023-08-20T08:27:07;12.18;;;7.22;;
21943;SDS011;11136;48.778;9.126;2023-08-20T08:29:33;13.77;;;8.07;;
21943;SDS011;11136;48.778;9.126;2023-08-20T08:31:58;10.02;;;7.50;;
21943;SDS011;11136;48.778;9.126;2023-08-20T08:34:24;15.02;;;6.75;;
21943;SDS011;11136;48.778;9.126;2023-08-20T08:36:49;8.82;;;7.30;;
21943;SDS011;11136;48.778;9.126;2023-08-20T08:39:15;14.13;;;7.10;;
21943;SDS011;11136;48.778;9.126;2023-08-20T08:41:40;8.70;;;7.03;;
21943;SDS011;11136;48.778;9.126;2023-08-20T08:44:07;11.45;;;7.90;;
21943;SDS011;11136;48.778;9.126;2023-08-20T08:46:35;11.52;;;6.97;;
21943;SDS011;11136;48.778;9.126;2023-08-20T08:49:01;8.45;;;7.15;;
21943;SDS011;11136;48.778;9.126;2023-08-20T08:51:28;13.07;;;7.63;;
21943;SDS011;11136;48.778;9.126;2023-08-20T08:53:55;11.38;;;6.63;;
21943;SDS011;11136;48.778;9.126;2023-08-20T08:56:22;12.60;;;7.05;;
21943;SDS011;11136;48.778;9.126;2023-08-20T08:58:47;10.60;;;7.30;;
21943;SDS011;11136;48.778;9.126;2023-08-20T09:01:13;12.05;;;7.47;;
21943;SDS011;11136;48.778;9.126;2023-08-20T09:03:38;12.65;;;6.75;;
21943;SDS011;11136;48.778;9.126;2023-08-20T09:06:07;9.68;;;7.20;;
21943;SDS011;11136;48.778;9.126;2023-08-20T09:08:34;9.55;;;6.97;;
21943;SDS011;11136;48.778;9.126;2023-08-20T09:11:00;10.68;;;6.97;;
21943;SDS011;11136;48.778;9.126;2023-08-20T09:13:33;9.05;;;6.88;;
21943;SDS011;11136;48.778;9.126;2023-08-20T09:16:04;13.23;;;7.90;;
21943;SDS011;11136;48.778;9.126;2023-08-20T09:18:31;10.65;;;6.72;;
21943;SDS011;11136;48.778;9.126;2023-08-20T09:20:57;7.72;;;6.60;;
21943;SDS011;11136;48.778;9.126;2023-08-20T09:23:25;7.88;;;6.70;;
21943;SDS011;11136;48.778;9.126;2023-08-20T09:25:53;10.52;;;6.65;;
21943;SDS011;11136;48.778;9.126;2023-08-20T09:28:19;13.32;;;7.25;;
21943;SDS011;11136;48.778;9.126;2023-08-20T09:30:54;8.13;;;7.07;;
21943;SDS011;11136;48.778;9.126;2023-08-20T09:33:21;12.73;;;8.15;;
21943;SDS011;11136;48.778;9.126;2023-08-20T09:35:50;11.52;;;6.97;;
21943;SDS011;11136;48.778;9.126;2023-08-20T09:38:20;9.02;;;6.38;;
21943;SDS011;11136;48.778;9.126;2023-08-20T09:40:50;11.98;;;6.75;;
21943;SDS011;11136;48.778;9.126;2023-08-20T09:43:17;11.45;;;7.05;;
21943;SDS011;11136;48.778;9.126;2023-08-20T09:45:43;12.93;;;6.82;;
21943;SDS011;11136;48.778;9.126;2023-08-20T09:48:12;8.70;;;6.72;;
21943;SDS011;11136;48.778;9.126;2023-08-20T09:50:45;10.98;;;7.10;;
21943;SDS011;11136;48.778;9.126;2023-08-20T09:53:25;9.63;;;7.25;;
21943;SDS011;11136;48.778;9.126;2023-08-20T09:58:49;9.13;;;6.55;;
21943;SDS011;11136;48.778;9.126;2023-08-20T10:01:16;10.73;;;7.03;;
21943;SDS011;11136;48.778;9.126;2023-08-20T10:03:42;8.65;;;6.75;;
21943;SDS011;11136;48.778;9.126;2023-08-20T10:06:09;13.13;;;7.53;;
21943;SDS011;11136;48.778;9.126;2023-08-20T10:08:36;10.57;;;6.43;;
21943;SDS011;11136;48.778;9.126;2023-08-20T10:11:03;11.10;;;7.10;;
21943;SDS011;11136;48.778;9.126;2023-08-20T10:13:28;11.75;;;7.18;;
21943;SDS011;11136;48.778;9.126;2023-08-20T10:15:55;16.75;;;7.22;;
21943;SDS011;11136;48.778;9.126;2023-08-20T10:18:21;12.50;;;7.22;;
21943;SDS011;11136;48.778;9.126;2023-08-20T10:20:49;9.77;;;6.53;;
21943;SDS011;11136;48.778;9.126;2023-08-20T10:23:15;11.45;;;6.85;;
21943;SDS011;11136;48.778;9.126;2023-08-20T10:25:45;7.80;;;6.57;;
21943;SDS011;11136;48.778;9.126;2023-08-20T10:33:35;10.20;;;6.07;;
21943;SDS011;11136;48.778;9.126;2023-08-20T10:36:09;10.00;;;6.68;;
21943;SDS011;11136;48.778;9.126;2023-08-20T10:38:47;9.73;;;6.43;;
21943;SDS011;11136;48.778;9.126;2023-08-20T10:41:15;8.00;;;6.10;;
21943;SDS011;11136;48.778;9.126;2023-08-20T10:43:48;10.40;;;6.53;;
21943;SDS011;11136;48.778;9.126;2023-08-20T10:46:21;7.18;;;6.47;;
21943;SDS011;11136;48.778;9.126;2023-08-20T10:48:49;12.88;;;7.13;;
21943;SDS011;11136;48.778;9.126;2023-08-20T10:51:18;11.35;;;7.45;;
21943;SDS011;11136;48.778;9.126;2023-08-20T10:59:14;11.55;;;6.18;;
21943;SDS011;11136;48.778;9.126;2023-08-20T11:04:10;9.38;;;5.95;;
21943;SDS011;11136;48.778;9.126;2023-08-20T11:06:37;13.52;;;6.78;;
21943;SDS011;11136;48.778;9.126;2023-08-20T11:09:04;11.52;;;6.68;;
21943;SDS011;11136;48.778;9.126;2023-08-20T11:11:30;8.40;;;6.15;;
21943;SDS011;11136;48.778;9.126;2023-08-20T11:13:57;7.65;;;5.97;;
21943;SDS011;11136;48.778;9.126;2023-08-20T11:16:29;8.82;;;6.22;;
21943;SDS011;11136;48.778;9.126;2023-08-20T11:18:55;7.97;;;6.32;;
21943;SDS011;11136;48.778;9.126;2023-08-20T11:21:22;8.15;;;5.95;;
21943;SDS011;11136;48.778;9.126;2023-08-20T11:23:48;8.85;;;6.20;;
21943;SDS011;11136;48.778;9.126;2023-08-20T11:26:14;7.13;;;5.97;;
21943;SDS011;11136;48.778;9.126;2023-08-20T11:28:44;7.60;;;5.43;;
21943;SDS011;11136;48.778;9.126;2023-08-20T11:31:11;8.98;;;5.55;;
21943;SDS011;11136;48.778;9.126;2023-08-20T11:33:37;14.23;;;5.90;;
21943;SDS011;11136;48.778;9.126;2023-08-20T11:36:05;11.05;;;6.20;;
21943;SDS011;11136;48.778;9.126;2023-08-20T11:38:31;11.05;;;6.15;;
21943;SDS011;11136;48.778;9.126;2023-08-20T11:40:59;10.93;;;5.82;;
21943;SDS011;11136;48.778;9.126;2023-08-20T11:43:28;8.25;;;5.32;;
21943;SDS011;11136;48.778;9.126;2023-08-20T11:45:54;6.30;;;5.68;;
21943;SDS011;11136;48.778;9.126;2023-08-20T11:48:20;8.82;;;5.90;;
21943;SDS011;11136;48.778;9.126;2023-08-20T11:50:47;9.27;;;5.40;;
21943;SDS011;11136;48.778;9.126;2023-08-20T11:53:14;7.45;;;5.45;;
21943;SDS011;11136;48.778;9.126;2023-08-20T11:55:40;10.15;;;6.40;;
21943;SDS011;11136;48.778;9.126;2023-08-20T11:58:12;10.70;;;6.03;;
21943;SDS011;11136;48.778;9.126;2023-08-20T12:00:37;7.22;;;5.82;;
21943;SDS011;11136;48.778;9.126;2023-08-20T12:03:03;7.50;;;5.80;;
21943;SDS011;11136;48.778;9.126;2023-08-20T12:05:30;10.65;;;5.57;;
21943;SDS011;11136;48.778;9.126;2023-08-20T12:07:56;9.05;;;5.47;;
21943;SDS011;11136;48.778;9.126;2023-08-20T12:10:27;11.07;;;5.00;;
21943;SDS011;11136;48.778;9.126;2023-08-20T12:12:54;8.57;;;5.03;;
21943;SDS011;11136;48.778;9.126;2023-08-20T12:15:21;8.10;;;5.57;;
21943;SDS011;11136;48.778;9.126;2023-08-20T12:20:27;9.18;;;5.55;;
21943;SDS011;11136;48.778;9.126;2023-08-20T12:22:54;7.05;;;5.38;;
21943;SDS011;11136;48.778;9.126;2023-08-20T12:25:19;6.55;;;4.95;;
21943;SDS011;11136;48.778;9.126;2023-08-20T12:27:45;11.43;;;5.32;;
21943;SDS011;11136;48.778;9.126;2023-08-20T12:30:11;6.80;;;5.05;;
21943;SDS011;11136;48.778;9.126;2023-08-20T12:32:37;13.23;;;6.03;;
21943;SDS011;11136;48.778;9.126;2023-08-20T12:35:02;10.90;;;5.65;;
21943;SDS011;11136;48.778;9.126;2023-08-20T12:37:28;7.50;;;5.45;;
21943;SDS011;11136;48.778;9.126;2023-08-20T12:39:54;6.95;;;6.25;;
21943;SDS011;11136;48.778;9.126;2023-08-20T12:42:20;10.82;;;5.97;;
21943;SDS011;11136;48.778;9.126;2023-08-20T12:44:45;9.98;;;6.10;;
21943;SDS011;11136;48.778;9.126;2023-08-20T12:47:11;9.90;;;5.20;;
21943;SDS011;11136;48.778;9.126;2023-08-20T12:49:36;8.98;;;5.72;;
21943;SDS011;11136;48.778;9.126;2023-08-20T12:52:02;6.95;;;5.10;;
21943;SDS011;11136;48.778;9.126;2023-08-20T12:54:28;9.77;;;5.60;;
21943;SDS011;11136;48.778;9.126;2023-08-20T12:56:54;12.65;;;6.18;;
21943;SDS011;11136;48.778;9.126;2023-08-20T12:59:20;8.52;;;5.35;;
21943;SDS011;11136;48.778;9.126;2023-08-20T13:01:45;11.10;;;5.10;;
21943;SDS011;11136;48.778;9.126;2023-08-20T13:04:12;7.90;;;5.45;;
21943;SDS011;11136;48.778;9.126;2023-08-20T13:06:38;6.25;;;5.22;;
21943;SDS011;11136;48.778;9.126;2023-08-20T13:09:04;10.07;;;5.40;;
21943;SDS011;11136;48.778;9.126;2023-08-20T13:11:32;9.10;;;5.60;;
21943;SDS011;11136;48.778;9.126;2023-08-20T13:13:58;6.80;;;5.55;;
21943;SDS011;11136;48.778;9.126;2023-08-20T13:16:24;9.85;;;5.43;;
21943;SDS011;11136;48.778;9.126;2023-08-20T13:18:50;8.50;;;5.60;;
21943;SDS011;11136;48.778;9.126;2023-08-20T13:21:15;9.88;;;5.85;;
21943;SDS011;11136;48.778;9.126;2023-08-20T13:23:41;13.85;;;5.68;;
21943;SDS011;11136;48.778;9.126;2023-08-20T13:26:07;9.40;;;5.97;;
21943;SDS011;11136;48.778;9.126;2023-08-20T13:28:32;8.23;;;5.47;;
21943;SDS011;11136;48.778;9.126;2023-08-20T13:30:58;8.10;;;6.07;;
21943;SDS011;11136;48.778;9.126;2023-08-20T13:33:24;7.32;;;5.53;;
21943;SDS011;11136;48.778;9.126;2023-08-20T13:35:49;7.22;;;5.80;;
21943;SDS011;11136;48.778;9.126;2023-08-20T13:38:17;6.47;;;5.80;;
21943;SDS011;11136;48.778;9.126;2023-08-20T13:40:44;10.50;;;5.30;;
21943;SDS011;11136;48.778;9.126;2023-08-20T13:43:09;6.82;;;4.93;;
21943;SDS011;11136;48.778;9.126;2023-08-20T13:45:35;9.77;;;5.53;;
21943;SDS011;11136;48.778;9.126;2023-08-20T13:48:04;8.23;;;5.43;;
21943;SDS011;11136;48.778;9.126;2023-08-20T13:50:36;11.93;;;5.82;;
21943;SDS011;11136;48.778;9.126;2023-08-20T13:53:02;7.30;;;5.38;;
21943;SDS011;11136;48.778;9.126;2023-08-20T13:55:28;8.55;;;5.35;;
21943;SDS011;11136;48.778;9.126;2023-08-20T13:57:56;10.10;;;4.82;;
21943;SDS011;11136;48.778;9.126;2023-08-20T14:00:21;7.18;;;5.25;;
21943;SDS011;11136;48.778;9.126;2023-08-20T14:02:47;8.93;;;5.50;;
21943;SDS011;11136;48.778;9.126;2023-08-20T14:05:13;6.20;;;4.93;;
21943;SDS011;11136;48.778;9.126;2023-08-20T14:07:38;9.00;;;5.63;;
21943;SDS011;11136;48.778;9.126;2023-08-20T14:10:05;7.70;;;5.53;;
21943;SDS011;11136;48.778;9.126;2023-08-20T14:12:31;14.30;;;5.38;;
21943;SDS011;11136;48.778;9.126;2023-08-20T14:14:58;8.20;;;5.25;;
21943;SDS011;11136;48.778;9.126;2023-08-20T14:17:24;12.00;;;5.32;;
21943;SDS011;11136;48.778;9.126;2023-08-20T14:19:50;10.65;;;5.43;;
21943;SDS011;11136;48.778;9.126;2023-08-20T14:22:15;8.90;;;5.10;;
21943;SDS011;11136;48.778;9.126;2023-08-20T14:24:42;10.18;;;5.03;;
21943;SDS011;11136;48.778;9.126;2023-08-20T14:27:07;12.68;;;5.22;;
21943;SDS011;11136;48.778;9.126;2023-08-20T14:29:33;7.15;;;5.07;;
21943;SDS011;11136;48.778;9.126;2023-08-20T14:31:59;7.60;;;4.97;;
21943;SDS011;11136;48.778;9.126;2023-08-20T14:34:24;11.30;;;5.00;;
21943;SDS011;11136;48.778;9.126;2023-08-20T14:36:50;8.02;;;5.18;;
21943;SDS011;11136;48.778;9.126;2023-08-20T14:39:15;8.07;;;5.05;;
21943;SDS011;11136;48.778;9.126;2023-08-20T14:41:41;9.80;;;5.35;;
21943;SDS011;11136;48.778;9.126;2023-08-20T14:44:07;8.35;;;5.40;;
21943;SDS011;11136;48.778;9.126;2023-08-20T14:46:32;10.18;;;5.25;;
21943;SDS011;11136;48.778;9.126;2023-08-20T14:48:58;7.20;;;5.35;;
21943;SDS011;11136;48.778;9.126;2023-08-20T14:51:23;8.48;;;5.30;;
21943;SDS011;11136;48.778;9.126;2023-08-20T14:53:49;8.65;;;4.75;;
21943;SDS011;11136;48.778;9.126;2023-08-20T14:56:14;15.73;;;5.65;;
21943;SDS011;11136;48.778;9.126;2023-08-20T14:58:40;7.53;;;4.65;;
21943;SDS011;11136;48.778;9.126;2023-08-20T15:01:05;7.68;;;4.93;;
21943;SDS011;11136;48.778;9.126;2023-08-20T15:03:33;7.25;;;5.28;;